Terminal Aerodrome Forecast
Issued by NWS Memphis, TN

Home | Current Version | Previous Version | Text Only | Print | Product List | Glossary On
Versions: 1 2 3 4 5 6 7 8 9 10 11 12 13 14
000
FTUS44 KMEG 021122
TAFMKL
TAF
KMKL 021122Z 0212/0312 20009KT P6SM VCSH SCT040 OVC120
      TEMPO 0214/0216 -SHRA
     FM022000 22011G19KT P6SM VCTS SCT040CB OVC100
      TEMPO 0222/0224 4SM -TSRA BKN040CB
     FM030100 22007KT P6SM SCT070 BKN200=

USA.gov is the U.S. government's official web portal to all federal, state and local government web resources and services.